< Typhoon 199113 1991 Season Typhoon 199115 >
Typhoon 199114 (HARRY)
General InformationTrack Information on Google MapsDetailed Wind InformationList of All Images || NewsDisaster Info.ResourceGoogle EarthGE AnimationAtom FeedGeoJSON
Detalied Best Track (Time Zone = UTC)
Year Month Day Hour Lat. Long. Pressure (hPa) Wind (kt) Class Image Chart
1991 8 28 18 23.5 133.0 1000 0 2 Image Chart
1991 8 29 00 24.5 133.0 1000 0 2 Image Chart
1991 8 29 06 25.5 133.0 998 0 2 Image Chart
1991 8 29 12 26.5 133.2 998 0 2 Image Chart
1991 8 29 18 28.0 133.5 996 0 2 Image Chart
1991 8 30 00 29.5 134.2 994 35 3 Image Chart
1991 8 30 03 30.2 134.7 994 35 3 Image Chart
1991 8 30 06 31.0 135.2 994 35 3 Image Chart
1991 8 30 09 31.9 135.7 994 35 3 Image Chart
1991 8 30 12 32.5 136.2 992 40 3 Image Chart
1991 8 30 15 33.6 137.0 992 40 3 Image Chart
1991 8 30 17 34.4 137.7 992 40 3 Image Chart
1991 8 30 18 34.8 138.0 992 40 3 Image Chart
1991 8 30 21 35.2 138.6 994 35 3 Image Chart
1991 8 31 00 36.0 139.7 994 35 3 Image Chart
1991 8 31 03 37.1 140.8 994 35 3 Image Chart
1991 8 31 06 38.3 142.0 994 35 3 Image Chart
1991 8 31 09 39.4 143.3 994 35 3 Image Chart
1991 8 31 12 41.0 145.0 994 0 6 Image Chart
1991 8 31 18 43.0 149.0 994 0 6 Image Chart
1991 9 1 00 44.0 155.0 994 0 6 Image Chart
1991 9 1 06 45.0 159.0 994 0 6 Image Chart
1991 9 1 12 46.0 163.0 992 0 6 Image Chart
1991 9 1 18 47.0 167.0 990 0 6 Image Chart
1991 9 2 00 47.0 172.0 986 0 6 Image Chart
1991 9 2 06 47.0 177.0 984 0 6 Image Chart
1991 9 2 12 46.0 182.0 984 0 6 Image Chart
Japan Meteorological Agency Best Track Data | Correction Date : 1992-01-04
< Typhoon 199113 1991 Season Typhoon 199115 >

Help